sensor_id;sensor_type;location;lat;lon;timestamp;pressure;altitude;pressure_sealevel;temperature;humidity
72024;BME280;59889;50.700;5.440;2022-09-01T00:00:47;100384.29;;;29.02;26.81
72024;BME280;59889;50.700;5.440;2022-09-01T00:03:12;100381.38;;;28.97;26.86
72024;BME280;59889;50.700;5.440;2022-09-01T00:05:37;100379.13;;;29.22;26.89
72024;BME280;59889;50.700;5.440;2022-09-01T00:08:03;100379.89;;;28.96;26.86
72024;BME280;59889;50.700;5.440;2022-09-01T00:10:29;100381.89;;;29.40;26.91
72024;BME280;59889;50.700;5.440;2022-09-01T00:12:54;100380.49;;;29.09;26.96
72024;BME280;59889;50.700;5.440;2022-09-01T00:15:20;100377.75;;;29.14;26.90
72024;BME280;59889;50.700;5.440;2022-09-01T00:17:46;100375.81;;;29.05;26.99
72024;BME280;59889;50.700;5.440;2022-09-01T00:20:12;100379.27;;;29.09;27.01
72024;BME280;59889;50.700;5.440;2022-09-01T00:22:37;100380.66;;;28.93;26.90
72024;BME280;59889;50.700;5.440;2022-09-01T00:25:04;100383.45;;;28.97;26.87
72024;BME280;59889;50.700;5.440;2022-09-01T00:27:29;100381.18;;;28.96;26.87
72024;BME280;59889;50.700;5.440;2022-09-01T00:29:55;100376.74;;;29.16;26.89
72024;BME280;59889;50.700;5.440;2022-09-01T00:32:20;100378.42;;;28.90;26.93
72024;BME280;59889;50.700;5.440;2022-09-01T00:34:46;100379.36;;;28.90;26.92
72024;BME280;59889;50.700;5.440;2022-09-01T00:37:12;100382.06;;;28.95;26.88
72024;BME280;59889;50.700;5.440;2022-09-01T00:39:38;100378.87;;;29.15;26.93
72024;BME280;59889;50.700;5.440;2022-09-01T00:42:04;100380.42;;;28.90;26.97
72024;BME280;59889;50.700;5.440;2022-09-01T00:44:29;100380.24;;;29.20;26.90
72024;BME280;59889;50.700;5.440;2022-09-01T00:46:55;100376.79;;;29.19;26.88
72024;BME280;59889;50.700;5.440;2022-09-01T00:49:26;100376.22;;;29.11;26.93
72024;BME280;59889;50.700;5.440;2022-09-01T00:51:48;100375.09;;;29.13;26.93
72024;BME280;59889;50.700;5.440;2022-09-01T00:54:19;100374.59;;;28.83;26.99
72024;BME280;59889;50.700;5.440;2022-09-01T00:56:39;100375.32;;;29.15;26.98
72024;BME280;59889;50.700;5.440;2022-09-01T00:59:04;100373.69;;;28.85;26.95
72024;BME280;59889;50.700;5.440;2022-09-01T01:01:28;100374.02;;;29.08;26.98
72024;BME280;59889;50.700;5.440;2022-09-01T01:03:54;100374.84;;;28.84;26.96
72024;BME280;59889;50.700;5.440;2022-09-01T01:06:20;100376.74;;;28.85;26.99
72024;BME280;59889;50.700;5.440;2022-09-01T01:08:47;100378.16;;;28.97;26.90
72024;BME280;59889;50.700;5.440;2022-09-01T01:11:14;100377.71;;;29.09;26.96
72024;BME280;59889;50.700;5.440;2022-09-01T01:13:48;100376.74;;;28.82;26.99
72024;BME280;59889;50.700;5.440;2022-09-01T01:16:02;100378.54;;;28.89;26.92
72024;BME280;59889;50.700;5.440;2022-09-01T01:18:29;100382.65;;;28.91;27.00
72024;BME280;59889;50.700;5.440;2022-09-01T01:20:57;100381.78;;;29.39;26.95
72024;BME280;59889;50.700;5.440;2022-09-01T01:23:24;100382.58;;;28.85;26.99
72024;BME280;59889;50.700;5.440;2022-09-01T01:25:48;100383.38;;;28.83;27.06
72024;BME280;59889;50.700;5.440;2022-09-01T01:28:13;100383.00;;;29.11;26.96
72024;BME280;59889;50.700;5.440;2022-09-01T01:30:39;100382.34;;;29.05;27.02
72024;BME280;59889;50.700;5.440;2022-09-01T01:33:04;100383.29;;;29.07;26.99
72024;BME280;59889;50.700;5.440;2022-09-01T01:35:28;100381.37;;;29.31;27.07
72024;BME280;59889;50.700;5.440;2022-09-01T01:37:54;100377.73;;;28.83;27.00
72024;BME280;59889;50.700;5.440;2022-09-01T01:40:20;100376.83;;;29.00;27.07
72024;BME280;59889;50.700;5.440;2022-09-01T01:42:48;100375.93;;;28.98;27.08
72024;BME280;59889;50.700;5.440;2022-09-01T01:45:13;100376.29;;;28.99;27.06
72024;BME280;59889;50.700;5.440;2022-09-01T01:47:38;100377.06;;;29.26;27.04
72024;BME280;59889;50.700;5.440;2022-09-01T01:50:05;100381.86;;;29.18;27.14
72024;BME280;59889;50.700;5.440;2022-09-01T01:52:29;100383.95;;;29.16;27.14
72024;BME280;59889;50.700;5.440;2022-09-01T01:54:55;100387.59;;;29.02;27.08
72024;BME280;59889;50.700;5.440;2022-09-01T01:57:21;100387.33;;;28.98;27.08
72024;BME280;59889;50.700;5.440;2022-09-01T01:59:47;100389.10;;;28.99;27.08
72024;BME280;59889;50.700;5.440;2022-09-01T02:02:13;100388.72;;;28.70;27.10
72024;BME280;59889;50.700;5.440;2022-09-01T02:04:38;100389.69;;;28.96;27.11
72024;BME280;59889;50.700;5.440;2022-09-01T02:07:08;100391.39;;;29.02;27.04
72024;BME280;59889;50.700;5.440;2022-09-01T02:09:30;100386.54;;;28.57;27.09
72024;BME280;59889;50.700;5.440;2022-09-01T02:11:56;100386.95;;;28.80;27.05
72024;BME280;59889;50.700;5.440;2022-09-01T02:14:23;100386.16;;;28.76;27.08
72024;BME280;59889;50.700;5.440;2022-09-01T02:16:47;100384.61;;;28.99;27.12
72024;BME280;59889;50.700;5.440;2022-09-01T02:19:13;100382.70;;;28.86;27.02
72024;BME280;59889;50.700;5.440;2022-09-01T02:21:39;100382.07;;;28.74;27.13
72024;BME280;59889;50.700;5.440;2022-09-01T02:24:05;100384.41;;;28.95;27.16
72024;BME280;59889;50.700;5.440;2022-09-01T02:26:33;100384.91;;;28.73;27.14
72024;BME280;59889;50.700;5.440;2022-09-01T02:28:57;100388.98;;;29.27;27.08
72024;BME280;59889;50.700;5.440;2022-09-01T02:31:23;100389.88;;;29.07;26.97
72024;BME280;59889;50.700;5.440;2022-09-01T02:33:48;100387.66;;;28.98;27.11
72024;BME280;59889;50.700;5.440;2022-09-01T02:36:17;100387.14;;;29.02;27.02
72024;BME280;59889;50.700;5.440;2022-09-01T02:38:40;100385.84;;;29.28;27.01
72024;BME280;59889;50.700;5.440;2022-09-01T02:41:05;100383.09;;;29.09;26.98
72024;BME280;59889;50.700;5.440;2022-09-01T02:43:31;100383.19;;;28.74;27.08
72024;BME280;59889;50.700;5.440;2022-09-01T02:45:59;100380.71;;;28.78;27.01
72024;BME280;59889;50.700;5.440;2022-09-01T02:48:25;100380.47;;;28.77;27.03
72024;BME280;59889;50.700;5.440;2022-09-01T02:50:49;100375.62;;;29.04;27.08
72024;BME280;59889;50.700;5.440;2022-09-01T02:53:15;100376.33;;;29.24;27.07
72024;BME280;59889;50.700;5.440;2022-09-01T02:55:41;100377.07;;;28.76;27.12
72024;BME280;59889;50.700;5.440;2022-09-01T02:58:07;100376.03;;;29.25;27.09
72024;BME280;59889;50.700;5.440;2022-09-01T03:00:32;100372.84;;;29.02;27.02
72024;BME280;59889;50.700;5.440;2022-09-01T03:03:00;100372.29;;;29.08;26.95
72024;BME280;59889;50.700;5.440;2022-09-01T03:05:29;100371.13;;;29.01;27.01
72024;BME280;59889;50.700;5.440;2022-09-01T03:07:52;100371.13;;;29.24;27.12
72024;BME280;59889;50.700;5.440;2022-09-01T03:10:16;100370.09;;;29.33;26.97
72024;BME280;59889;50.700;5.440;2022-09-01T03:12:42;100365.88;;;29.23;27.01
72024;BME280;59889;50.700;5.440;2022-09-01T03:15:07;100365.55;;;28.99;27.10
72024;BME280;59889;50.700;5.440;2022-09-01T03:17:33;100365.18;;;29.27;27.02
72024;BME280;59889;50.700;5.440;2022-09-01T03:19:59;100364.49;;;29.01;27.10
72024;BME280;59889;50.700;5.440;2022-09-01T03:22:25;100364.72;;;29.02;27.08
72024;BME280;59889;50.700;5.440;2022-09-01T03:24:51;100363.81;;;28.78;27.04
72024;BME280;59889;50.700;5.440;2022-09-01T03:27:17;100363.12;;;29.03;27.07
72024;BME280;59889;50.700;5.440;2022-09-01T03:29:42;100360.63;;;28.77;27.04
72024;BME280;59889;50.700;5.440;2022-09-01T03:32:21;100359.57;;;28.76;27.02
72024;BME280;59889;50.700;5.440;2022-09-01T03:34:34;100363.66;;;28.94;27.08
72024;BME280;59889;50.700;5.440;2022-09-01T03:37:00;100366.43;;;29.04;27.05
72024;BME280;59889;50.700;5.440;2022-09-01T03:39:26;100366.87;;;28.99;27.05
72024;BME280;59889;50.700;5.440;2022-09-01T03:41:51;100367.71;;;28.76;27.06
72024;BME280;59889;50.700;5.440;2022-09-01T03:44:16;100366.28;;;29.03;27.00
72024;BME280;59889;50.700;5.440;2022-09-01T03:46:42;100369.14;;;28.77;27.04
72024;BME280;59889;50.700;5.440;2022-09-01T03:49:06;100371.84;;;28.79;27.07
72024;BME280;59889;50.700;5.440;2022-09-01T03:51:33;100369.69;;;28.84;26.98
72024;BME280;59889;50.700;5.440;2022-09-01T03:53:58;100370.14;;;29.22;27.08
72024;BME280;59889;50.700;5.440;2022-09-01T03:56:25;100368.79;;;29.02;26.99
72024;BME280;59889;50.700;5.440;2022-09-01T03:58:50;100367.66;;;28.79;26.97
72024;BME280;59889;50.700;5.440;2022-09-01T04:01:16;100366.47;;;29.24;26.74
72024;BME280;59889;50.700;5.440;2022-09-01T04:03:42;100368.21;;;29.36;27.78
72024;BME280;59889;50.700;5.440;2022-09-01T04:06:08;100365.32;;;28.81;28.02
72024;BME280;59889;50.700;5.440;2022-09-01T04:08:33;100364.00;;;29.33;27.99
72024;BME280;59889;50.700;5.440;2022-09-01T04:11:00;100362.08;;;29.06;27.86
72024;BME280;59889;50.700;5.440;2022-09-01T04:13:25;100362.76;;;28.80;27.79
72024;BME280;59889;50.700;5.440;2022-09-01T04:15:48;100367.02;;;28.87;27.56
72024;BME280;59889;50.700;5.440;2022-09-01T04:18:13;100366.00;;;28.83;27.57
72024;BME280;59889;50.700;5.440;2022-09-01T04:20:39;100364.43;;;28.90;27.43
72024;BME280;59889;50.700;5.440;2022-09-01T04:23:03;100366.49;;;28.91;27.50
72024;BME280;59889;50.700;5.440;2022-09-01T04:25:28;100368.30;;;29.34;27.66
72024;BME280;59889;50.700;5.440;2022-09-01T04:27:53;100368.91;;;29.04;27.89
72024;BME280;59889;50.700;5.440;2022-09-01T04:30:19;100366.34;;;29.08;27.98
72024;BME280;59889;50.700;5.440;2022-09-01T04:32:44;100367.32;;;29.02;28.11
72024;BME280;59889;50.700;5.440;2022-09-01T04:35:09;100366.26;;;28.76;28.22
72024;BME280;59889;50.700;5.440;2022-09-01T04:37:35;100364.05;;;28.83;28.22
72024;BME280;59889;50.700;5.440;2022-09-01T04:40:02;100363.97;;;29.04;28.36
72024;BME280;59889;50.700;5.440;2022-09-01T04:42:29;100363.54;;;28.80;28.42
72024;BME280;59889;50.700;5.440;2022-09-01T04:44:53;100364.49;;;28.98;28.50
72024;BME280;59889;50.700;5.440;2022-09-01T04:47:18;100361.70;;;29.19;28.61
72024;BME280;59889;50.700;5.440;2022-09-01T04:49:42;100363.23;;;29.01;28.58
72024;BME280;59889;50.700;5.440;2022-09-01T04:52:08;100360.80;;;28.97;28.62
72024;BME280;59889;50.700;5.440;2022-09-01T04:54:37;100362.76;;;28.73;28.62
72024;BME280;59889;50.700;5.440;2022-09-01T04:56:59;100364.51;;;28.98;28.62
72024;BME280;59889;50.700;5.440;2022-09-01T04:59:24;100362.65;;;29.20;28.66
72024;BME280;59889;50.700;5.440;2022-09-01T05:01:49;100361.55;;;29.20;28.65
72024;BME280;59889;50.700;5.440;2022-09-01T05:04:16;100361.72;;;28.92;28.71
72024;BME280;59889;50.700;5.440;2022-09-01T05:06:40;100362.10;;;29.11;28.73
72024;BME280;59889;50.700;5.440;2022-09-01T05:09:05;100363.30;;;29.21;28.60
72024;BME280;59889;50.700;5.440;2022-09-01T05:11:30;100359.93;;;28.90;28.71
72024;BME280;59889;50.700;5.440;2022-09-01T05:13:55;100356.83;;;29.16;28.70
72024;BME280;59889;50.700;5.440;2022-09-01T05:16:21;100354.60;;;28.84;28.80
72024;BME280;59889;50.700;5.440;2022-09-01T05:18:47;100354.82;;;28.84;28.77
72024;BME280;59889;50.700;5.440;2022-09-01T05:21:40;100354.63;;;28.91;28.59
72024;BME280;59889;50.700;5.440;2022-09-01T05:23:36;100355.83;;;29.18;28.64
72024;BME280;59889;50.700;5.440;2022-09-01T05:26:01;100356.33;;;28.91;28.76
72024;BME280;59889;50.700;5.440;2022-09-01T05:28:27;100355.86;;;28.95;28.77
72024;BME280;59889;50.700;5.440;2022-09-01T05:31:03;100355.48;;;29.01;29.01
72024;BME280;59889;50.700;5.440;2022-09-01T05:33:16;100355.33;;;28.86;28.95
72024;BME280;59889;50.700;5.440;2022-09-01T05:35:51;100358.20;;;28.67;28.91
72024;BME280;59889;50.700;5.440;2022-09-01T05:38:06;100361.13;;;28.90;28.90
72024;BME280;59889;50.700;5.440;2022-09-01T05:40:31;100362.13;;;28.73;28.88
72024;BME280;59889;50.700;5.440;2022-09-01T05:42:57;100365.51;;;28.95;28.92
72024;BME280;59889;50.700;5.440;2022-09-01T05:45:23;100369.09;;;28.91;28.95
72024;BME280;59889;50.700;5.440;2022-09-01T05:47:49;100369.33;;;28.90;28.95
72024;BME280;59889;50.700;5.440;2022-09-01T05:50:15;100370.42;;;29.11;28.97
72024;BME280;59889;50.700;5.440;2022-09-01T05:52:40;100370.04;;;28.59;28.99
72024;BME280;59889;50.700;5.440;2022-09-01T05:55:06;100372.67;;;28.88;28.91
72024;BME280;59889;50.700;5.440;2022-09-01T05:57:31;100378.17;;;28.80;28.99
72024;BME280;59889;50.700;5.440;2022-09-01T05:59:57;100380.61;;;28.80;28.92
72024;BME280;59889;50.700;5.440;2022-09-01T06:02:23;100378.58;;;28.86;28.84
72024;BME280;59889;50.700;5.440;2022-09-01T06:04:48;100380.82;;;29.07;28.87
72024;BME280;59889;50.700;5.440;2022-09-01T06:07:15;100383.40;;;29.02;28.89
72024;BME280;59889;50.700;5.440;2022-09-01T06:09:41;100384.18;;;28.84;28.81
72024;BME280;59889;50.700;5.440;2022-09-01T06:12:06;100384.87;;;29.08;28.82
72024;BME280;59889;50.700;5.440;2022-09-01T06:14:30;100381.99;;;28.79;28.83
72024;BME280;59889;50.700;5.440;2022-09-01T06:16:55;100384.94;;;29.08;28.76
72024;BME280;59889;50.700;5.440;2022-09-01T06:19:20;100386.38;;;29.06;28.76
72024;BME280;59889;50.700;5.440;2022-09-01T06:21:46;100383.95;;;28.77;28.80
72024;BME280;59889;50.700;5.440;2022-09-01T06:24:12;100384.19;;;28.70;28.86
72024;BME280;59889;50.700;5.440;2022-09-01T06:26:38;100387.17;;;28.76;28.79
72024;BME280;59889;50.700;5.440;2022-09-01T06:29:07;100386.20;;;29.01;28.79
72024;BME280;59889;50.700;5.440;2022-09-01T06:31:31;100387.00;;;29.04;28.78
72024;BME280;59889;50.700;5.440;2022-09-01T06:33:54;100385.61;;;28.76;28.78
72024;BME280;59889;50.700;5.440;2022-09-01T06:36:20;100386.19;;;28.99;28.76
72024;BME280;59889;50.700;5.440;2022-09-01T06:38:44;100385.22;;;29.00;28.77
72024;BME280;59889;50.700;5.440;2022-09-01T06:41:10;100385.20;;;28.80;28.71
72024;BME280;59889;50.700;5.440;2022-09-01T06:43:35;100384.46;;;29.04;28.66
72024;BME280;59889;50.700;5.440;2022-09-01T06:46:00;100384.84;;;28.78;28.68
72024;BME280;59889;50.700;5.440;2022-09-01T06:48:25;100388.16;;;28.51;28.72
72024;BME280;59889;50.700;5.440;2022-09-01T06:50:51;100389.03;;;29.09;28.60
72024;BME280;59889;50.700;5.440;2022-09-01T06:53:16;100391.93;;;29.14;28.53
72024;BME280;59889;50.700;5.440;2022-09-01T06:55:42;100393.17;;;28.91;28.53
72024;BME280;59889;50.700;5.440;2022-09-01T06:58:10;100394.91;;;28.95;28.47
72024;BME280;59889;50.700;5.440;2022-09-01T07:00:36;100398.11;;;28.93;28.47
72024;BME280;59889;50.700;5.440;2022-09-01T07:03:00;100399.66;;;29.20;28.41
72024;BME280;59889;50.700;5.440;2022-09-01T07:05:26;100399.14;;;29.38;28.22
72024;BME280;59889;50.700;5.440;2022-09-01T07:07:53;100404.13;;;29.25;28.11
72024;BME280;59889;50.700;5.440;2022-09-01T07:10:18;100405.27;;;29.25;27.84
72024;BME280;59889;50.700;5.440;2022-09-01T07:12:43;100407.09;;;29.49;27.60
72024;BME280;59889;50.700;5.440;2022-09-01T07:15:10;100412.55;;;30.58;26.47
72024;BME280;59889;50.700;5.440;2022-09-01T07:17:35;100410.49;;;30.45;26.09
72024;BME280;59889;50.700;5.440;2022-09-01T07:20:01;100411.45;;;30.31;26.18
72024;BME280;59889;50.700;5.440;2022-09-01T07:22:27;100408.99;;;30.44;26.52
72024;BME280;59889;50.700;5.440;2022-09-01T07:24:53;100410.42;;;29.86;26.88
72024;BME280;59889;50.700;5.440;2022-09-01T07:27:18;100411.58;;;29.57;27.14
72024;BME280;59889;50.700;5.440;2022-09-01T07:29:45;100407.76;;;29.63;27.32
72024;BME280;59889;50.700;5.440;2022-09-01T07:32:10;100410.25;;;29.23;27.46
72024;BME280;59889;50.700;5.440;2022-09-01T07:34:36;100408.17;;;29.56;27.40
72024;BME280;59889;50.700;5.440;2022-09-01T07:37:02;100406.80;;;29.43;27.52
72024;BME280;59889;50.700;5.440;2022-09-01T07:39:28;100410.05;;;29.40;27.52
72024;BME280;59889;50.700;5.440;2022-09-01T07:41:53;100407.31;;;29.32;27.63
72024;BME280;59889;50.700;5.440;2022-09-01T07:44:19;100406.86;;;29.38;27.60
72024;BME280;59889;50.700;5.440;2022-09-01T07:46:45;100409.00;;;29.50;27.70
72024;BME280;59889;50.700;5.440;2022-09-01T07:49:11;100411.99;;;29.62;27.56
72024;BME280;59889;50.700;5.440;2022-09-01T07:51:37;100412.20;;;29.38;27.55
72024;BME280;59889;50.700;5.440;2022-09-01T07:54:03;100410.25;;;29.29;27.63
72024;BME280;59889;50.700;5.440;2022-09-01T07:56:28;100408.50;;;29.38;27.56
72024;BME280;59889;50.700;5.440;2022-09-01T07:58:54;100407.29;;;29.12;27.83
72024;BME280;59889;50.700;5.440;2022-09-01T08:01:22;100405.85;;;29.16;27.79
72024;BME280;59889;50.700;5.440;2022-09-01T08:03:47;100407.22;;;29.47;27.73
72024;BME280;59889;50.700;5.440;2022-09-01T08:06:13;100410.83;;;29.33;27.87
72024;BME280;59889;50.700;5.440;2022-09-01T08:08:39;100411.16;;;29.33;27.64
72024;BME280;59889;50.700;5.440;2022-09-01T08:11:03;100408.97;;;29.14;27.82
72024;BME280;59889;50.700;5.440;2022-09-01T08:13:29;100409.33;;;29.24;27.73
72024;BME280;59889;50.700;5.440;2022-09-01T08:15:55;100408.29;;;29.50;27.71
72024;BME280;59889;50.700;5.440;2022-09-01T08:18:20;100409.59;;;28.97;28.03
72024;BME280;59889;50.700;5.440;2022-09-01T08:20:46;100410.56;;;29.30;27.70
72024;BME280;59889;50.700;5.440;2022-09-01T08:23:14;100411.95;;;29.48;27.76
72024;BME280;59889;50.700;5.440;2022-09-01T08:25:39;100412.30;;;29.21;27.81
72024;BME280;59889;50.700;5.440;2022-09-01T08:28:04;100414.60;;;29.52;27.73
72024;BME280;59889;50.700;5.440;2022-09-01T08:30:30;100415.22;;;28.88;27.90
72024;BME280;59889;50.700;5.440;2022-09-01T08:32:55;100413.98;;;29.19;27.83
72024;BME280;59889;50.700;5.440;2022-09-01T08:35:22;100413.59;;;29.15;27.88
72024;BME280;59889;50.700;5.440;2022-09-01T08:37:47;100411.81;;;29.30;27.98
72024;BME280;59889;50.700;5.440;2022-09-01T08:40:17;100412.01;;;29.12;27.92
72024;BME280;59889;50.700;5.440;2022-09-01T08:42:49;100409.34;;;29.11;27.93
72024;BME280;59889;50.700;5.440;2022-09-01T08:45:08;100410.45;;;29.07;27.98
72024;BME280;59889;50.700;5.440;2022-09-01T08:47:31;100410.31;;;29.05;28.01
72024;BME280;59889;50.700;5.440;2022-09-01T08:49:58;100408.13;;;29.05;28.01
72024;BME280;59889;50.700;5.440;2022-09-01T08:52:27;100405.92;;;29.16;27.89
72024;BME280;59889;50.700;5.440;2022-09-01T08:54:50;100406.88;;;29.30;27.73
72024;BME280;59889;50.700;5.440;2022-09-01T08:57:19;100407.71;;;29.15;27.91
72024;BME280;59889;50.700;5.440;2022-09-01T08:59:40;100409.10;;;29.07;27.98
72024;BME280;59889;50.700;5.440;2022-09-01T09:02:20;100407.65;;;29.20;27.84
72024;BME280;59889;50.700;5.440;2022-09-01T09:04:43;100407.08;;;29.41;27.83
72024;BME280;59889;50.700;5.440;2022-09-01T09:07:03;100404.49;;;29.08;27.68
72024;BME280;59889;50.700;5.440;2022-09-01T09:09:29;100402.37;;;29.30;27.68
72024;BME280;59889;50.700;5.440;2022-09-01T09:12:01;100398.11;;;29.40;27.59
72024;BME280;59889;50.700;5.440;2022-09-01T09:14:24;100394.68;;;29.40;27.57
72024;BME280;59889;50.700;5.440;2022-09-01T09:16:42;100393.48;;;29.17;27.55
72024;BME280;59889;50.700;5.440;2022-09-01T09:19:10;100389.68;;;29.41;27.54
72024;BME280;59889;50.700;5.440;2022-09-01T09:21:35;100384.76;;;29.47;27.46
72024;BME280;59889;50.700;5.440;2022-09-01T09:24:05;100381.25;;;29.44;27.50
72024;BME280;59889;50.700;5.440;2022-09-01T09:26:24;100380.45;;;29.42;27.52
72024;BME280;59889;50.700;5.440;2022-09-01T09:28:50;100381.55;;;29.40;27.52
72024;BME280;59889;50.700;5.440;2022-09-01T09:31:28;100379.55;;;29.43;27.53
72024;BME280;59889;50.700;5.440;2022-09-01T09:33:42;100375.44;;;29.31;27.62
72024;BME280;59889;50.700;5.440;2022-09-01T09:36:16;100374.59;;;29.41;27.53
72024;BME280;59889;50.700;5.440;2022-09-01T09:38:33;100374.24;;;29.44;27.50
72024;BME280;59889;50.700;5.440;2022-09-01T09:41:01;100373.50;;;29.68;27.47
72024;BME280;59889;50.700;5.440;2022-09-01T09:43:28;100366.09;;;29.33;27.61
72024;BME280;59889;50.700;5.440;2022-09-01T09:48:26;100365.64;;;29.44;27.48
72024;BME280;59889;50.700;5.440;2022-09-01T09:50:43;100358.56;;;29.46;27.44
72024;BME280;59889;50.700;5.440;2022-09-01T09:53:12;100362.29;;;29.44;27.46
72024;BME280;59889;50.700;5.440;2022-09-01T09:55:34;100357.12;;;29.45;27.45
72024;BME280;59889;50.700;5.440;2022-09-01T09:58:09;100357.43;;;29.39;27.51
72024;BME280;59889;50.700;5.440;2022-09-01T10:00:28;100352.23;;;29.46;27.42
72024;BME280;59889;50.700;5.440;2022-09-01T10:02:55;100351.91;;;29.38;27.49
72024;BME280;59889;50.700;5.440;2022-09-01T10:05:25;100348.92;;;29.34;27.52
72024;BME280;59889;50.700;5.440;2022-09-01T10:07:44;100351.41;;;29.45;27.41
72024;BME280;59889;50.700;5.440;2022-09-01T10:10:25;100349.99;;;29.46;27.40
72024;BME280;59889;50.700;5.440;2022-09-01T10:12:35;100350.14;;;29.39;27.47
72024;BME280;59889;50.700;5.440;2022-09-01T10:15:04;100352.41;;;29.40;27.44
72024;BME280;59889;50.700;5.440;2022-09-01T10:17:30;100352.92;;;29.36;27.48
72024;BME280;59889;50.700;5.440;2022-09-01T10:19:56;100347.09;;;29.45;27.40
72024;BME280;59889;50.700;5.440;2022-09-01T10:22:19;100357.74;;;29.46;27.36
72024;BME280;59889;50.700;5.440;2022-09-01T10:24:45;100354.38;;;29.42;27.42
72024;BME280;59889;50.700;5.440;2022-09-01T10:27:17;100348.79;;;29.37;27.45
72024;BME280;59889;50.700;5.440;2022-09-01T10:29:40;100349.70;;;29.43;27.40
72024;BME280;59889;50.700;5.440;2022-09-01T10:32:07;100347.23;;;29.34;27.47
72024;BME280;59889;50.700;5.440;2022-09-01T10:34:34;100342.85;;;29.16;27.42
72024;BME280;59889;50.700;5.440;2022-09-01T10:36:54;100346.92;;;29.62;27.43
72024;BME280;59889;50.700;5.440;2022-09-01T10:39:20;100347.48;;;29.40;27.41
72024;BME280;59889;50.700;5.440;2022-09-01T10:41:49;100344.13;;;29.35;27.45
72024;BME280;59889;50.700;5.440;2022-09-01T10:44:17;100342.75;;;29.39;27.42
72024;BME280;59889;50.700;5.440;2022-09-01T10:46:42;100336.32;;;29.44;27.36
72024;BME280;59889;50.700;5.440;2022-09-01T10:49:20;100336.39;;;29.29;27.49
72024;BME280;59889;50.700;5.440;2022-09-01T10:51:41;100334.89;;;29.48;27.30
72024;BME280;59889;50.700;5.440;2022-09-01T10:53:56;100331.62;;;29.63;27.38
72024;BME280;59889;50.700;5.440;2022-09-01T10:56:23;100325.64;;;29.59;27.42
72024;BME280;59889;50.700;5.440;2022-09-01T10:58:59;100328.17;;;29.61;27.41
72024;BME280;59889;50.700;5.440;2022-09-01T11:01:13;100330.66;;;29.40;27.38
72024;BME280;59889;50.700;5.440;2022-09-01T11:03:49;100334.65;;;29.28;27.47
72024;BME280;59889;50.700;5.440;2022-09-01T11:06:06;100325.83;;;29.36;27.39
72024;BME280;59889;50.700;5.440;2022-09-01T11:08:41;100328.70;;;29.33;27.44
72024;BME280;59889;50.700;5.440;2022-09-01T11:10:58;100324.36;;;29.32;27.45
72024;BME280;59889;50.700;5.440;2022-09-01T11:13:35;100331.92;;;29.80;27.44
72024;BME280;59889;50.700;5.440;2022-09-01T11:15:48;100330.58;;;29.38;27.39
72024;BME280;59889;50.700;5.440;2022-09-01T11:18:15;100327.43;;;29.18;27.35
72024;BME280;59889;50.700;5.440;2022-09-01T11:20:42;100326.96;;;29.43;27.36
72024;BME280;59889;50.700;5.440;2022-09-01T11:23:09;100322.61;;;29.40;27.39
72024;BME280;59889;50.700;5.440;2022-09-01T11:25:38;100320.41;;;28.84;27.44
72024;BME280;59889;50.700;5.440;2022-09-01T11:28:00;100325.20;;;29.30;27.46
72024;BME280;59889;50.700;5.440;2022-09-01T11:32:51;100320.14;;;29.35;27.41
72024;BME280;59889;50.700;5.440;2022-09-01T11:35:16;100316.12;;;29.27;27.48
72024;BME280;59889;50.700;5.440;2022-09-01T11:37:40;100314.43;;;29.28;27.47
72024;BME280;59889;50.700;5.440;2022-09-01T11:40:07;100326.19;;;29.29;27.47
72024;BME280;59889;50.700;5.440;2022-09-01T11:42:36;100318.96;;;29.21;27.54
72024;BME280;59889;50.700;5.440;2022-09-01T11:45:01;100315.33;;;29.22;27.53
72024;BME280;59889;50.700;5.440;2022-09-01T11:47:26;100314.91;;;29.24;27.51
72024;BME280;59889;50.700;5.440;2022-09-01T11:49:53;100314.54;;;29.28;27.48
72024;BME280;59889;50.700;5.440;2022-09-01T11:52:16;100316.07;;;29.22;27.54
72024;BME280;59889;50.700;5.440;2022-09-01T11:54:42;100310.44;;;28.98;27.53
72024;BME280;59889;50.700;5.440;2022-09-01T11:57:20;100308.11;;;29.23;27.52
72024;BME280;59889;50.700;5.440;2022-09-01T11:59:35;100301.03;;;29.28;27.47
72024;BME280;59889;50.700;5.440;2022-09-01T12:01:59;100305.43;;;29.56;27.44
72024;BME280;59889;50.700;5.440;2022-09-01T12:04:29;100303.64;;;29.62;27.37
72024;BME280;59889;50.700;5.440;2022-09-01T12:06:53;100298.05;;;29.59;27.39
72024;BME280;59889;50.700;5.440;2022-09-01T12:09:17;100299.65;;;29.30;27.44
72024;BME280;59889;50.700;5.440;2022-09-01T12:11:42;100291.63;;;29.34;27.41
72024;BME280;59889;50.700;5.440;2022-09-01T12:14:09;100291.20;;;29.26;27.49
72024;BME280;59889;50.700;5.440;2022-09-01T12:16:35;100296.00;;;29.27;27.47
72024;BME280;59889;50.700;5.440;2022-09-01T12:19:00;100292.64;;;29.28;27.47
72024;BME280;59889;50.700;5.440;2022-09-01T12:21:27;100292.05;;;29.56;27.43
72024;BME280;59889;50.700;5.440;2022-09-01T12:23:52;100292.12;;;29.33;27.41
72024;BME280;59889;50.700;5.440;2022-09-01T12:26:20;100292.67;;;29.27;27.46
72024;BME280;59889;50.700;5.440;2022-09-01T12:28:44;100287.85;;;29.26;27.47
72024;BME280;59889;50.700;5.440;2022-09-01T12:31:17;100291.14;;;29.46;27.52
72024;BME280;59889;50.700;5.440;2022-09-01T12:33:35;100282.88;;;29.26;27.48
72024;BME280;59889;50.700;5.440;2022-09-01T12:36:17;100283.11;;;29.23;27.54
72024;BME280;59889;50.700;5.440;2022-09-01T12:38:29;100281.62;;;29.54;27.47
72024;BME280;59889;50.700;5.440;2022-09-01T12:40:55;100281.30;;;29.16;27.58
72024;BME280;59889;50.700;5.440;2022-09-01T12:43:29;100279.69;;;29.17;27.57
72024;BME280;59889;50.700;5.440;2022-09-01T12:45:56;100279.57;;;29.24;27.55